Terminal Aerodrome Forecast
Issued by NWS

Home | Current Version | Previous Version | Text Only | Print | Product List | Glossary On
Versions: 1 2 3 4 5 6 7 8 9 10 11 12 13 14 15 16 17 18 19 20 21 22
311
FTUS41 KGYX 251724
TAFLEB
TAF
KLEB 251724Z 2518/2618 VRB05KT P6SM OVC060
     FM252000 07009KT 4SM -RA BR BKN025 OVC050
      TEMPO 2606/2610 2SM -RA BR BKN007 OVC025=

USA.gov is the U.S. government's official web portal to all federal, state and local government web resources and services.